logo tempoitalia

Diretta Meteo Learmonth, Australialunedì 31 agosto ore 13:00

Mappa
Sereno 28 °C Sereno 24 Ore: T.min 14 T.max 30
Ponente Est/Nord-Est Km/h 22.2 Punto di rugiada: 10 °C Umidità: 32% Visibilità: 10 Km
Il sole sorge alle: 06:34 Il sole tramonta alle: 18:13
31 Agosto 2026 13:00 tempo osservato: Sereno Sereno 28 32 1019 vento: Nord E/NE 22.2
31 Agosto 2026 12:30 tempo osservato: Sereno Sereno 28 32 1019 vento: Nord E 20.3
31 Agosto 2026 12:00 tempo osservato: Sereno Sereno 28 34 1020 vento: Nord E/SE 14.8
31 Agosto 2026 11:30 tempo osservato: Sereno Sereno 28 32 1020 vento: Nord SE 11.1
31 Agosto 2026 11:00 tempo osservato: Sereno Sereno 27 32 1020 vento: Nord SE 13
31 Agosto 2026 10:30 tempo osservato: Sereno Sereno 26 34 1020 vento: Nord S/SE 16.7
31 Agosto 2026 10:00 tempo osservato: Sereno Sereno 26 31 1021 vento: Nord S 14.8
31 Agosto 2026 09:30 tempo osservato: Sereno Sereno 24 35 1021 vento: Nord S/SE 16.7
31 Agosto 2026 09:00 tempo osservato: Sereno Sereno 24 41 1021 vento: Nord S 16.7
31 Agosto 2026 08:30 tempo osservato: Sereno Sereno 22 49 1021 vento: Nord S 16.7
31 Agosto 2026 08:00 tempo osservato: Sereno Sereno 20 52 1020 vento: Nord S 13
31 Agosto 2026 07:30 tempo osservato: Sereno Sereno 18 63 1020 vento: Nord SO 11.1
31 Agosto 2026 07:00 tempo osservato: Sereno Sereno 15 72 1020 vento: Nord SO 11.1
31 Agosto 2026 06:30 tempo osservato: Sereno Sereno 15 72 1020 vento: Nord O/SO 13
31 Agosto 2026 06:00 tempo osservato: Sereno Sereno 15 72 1019 vento: Nord O/SO 13
31 Agosto 2026 05:30 tempo osservato: Sereno Sereno 15 76 1019 vento: Nord SO 13
31 Agosto 2026 05:00 tempo osservato: Sereno Sereno 16 77 1019 vento: Nord O/SO 14.8
31 Agosto 2026 04:30 tempo osservato: Sereno Sereno 15 82 1019 vento: Nord O/SO 13
31 Agosto 2026 04:00 tempo osservato: Sereno Sereno 15 82 1019 vento: Nord O/SO 13
31 Agosto 2026 03:30 tempo osservato: Sereno Sereno 15 82 1019 vento: Nord O/SO 11.1
31 Agosto 2026 03:00 tempo osservato: Sereno Sereno 14 87 1019 vento: Nord SO 9.3
31 Agosto 2026 02:30 tempo osservato: Sereno Sereno 14 87 1019 vento: Nord S/SO 11.1
31 Agosto 2026 02:00 tempo osservato: Sereno Sereno 14 87 1019 vento: Nord S 11.1
31 Agosto 2026 01:30 tempo osservato: Sereno Sereno 15 82 1019 vento: Nord S/SO 13
31 Agosto 2026 01:00 tempo osservato: Sereno Sereno 15 82 1019 vento: Nord S 11.1
31 Agosto 2026 00:30 tempo osservato: Sereno Sereno 16 77 1019 vento: Nord SO 9.3
31 Agosto 2026 00:00 tempo osservato: Pioviggine Pioviggine 16 82 1019 vento: Nord O/SO 11.1
30 Agosto 2026 23:30 tempo osservato: Sereno Sereno 16 77 1019 vento: Nord SO 9.3
30 Agosto 2026 23:00 tempo osservato: Sereno Sereno 17 77 1019 vento: Nord SO 7.4
30 Agosto 2026 22:30 tempo osservato: Pioggia Pioggia 18 72 1019 vento: Nord O/SO 9.3
30 Agosto 2026 22:00 tempo osservato: Pioggia Pioggia 17 77 1019 vento: Nord SO 13
30 Agosto 2026 21:30 tempo osservato: Sereno Sereno 18 67 1019 vento: Nord S/SO 9.3
30 Agosto 2026 21:00 tempo osservato: Sereno Sereno 20 64 1019 vento: Nord SO 13
30 Agosto 2026 20:30 tempo osservato: Sereno Sereno 20 64 1019 vento: Nord O/SO 13
30 Agosto 2026 20:00 tempo osservato: Sereno Sereno 20 56 1018 vento: Nord SO 11.1
30 Agosto 2026 19:30 tempo osservato: Sereno Sereno 21 49 1018 vento: Nord SO 13
30 Agosto 2026 19:00 tempo osservato: Sereno Sereno 22 43 1018 vento: Nord O/SO 13
30 Agosto 2026 18:30 tempo osservato: Sereno Sereno 24 38 1017 vento: Nord O 13
30 Agosto 2026 18:00 tempo osservato: Sereno Sereno 26 34 1017 vento: Nord O 13
30 Agosto 2026 17:30 tempo osservato: Sereno Sereno 27 32 1017 vento: Nord O 14.8
30 Agosto 2026 17:00 tempo osservato: Sereno Sereno 28 32 1016 vento: Nord O 20.3
30 Agosto 2026 16:30 tempo osservato: Sereno Sereno 30 30 1016 vento: Nord O/NO 13
30 Agosto 2026 16:00 tempo osservato: Sereno Sereno 30 28 1016 vento: Nord NO 18.5
30 Agosto 2026 15:30 tempo osservato: Sereno Sereno 29 32 1016 vento: Nord N/NO 13
30 Agosto 2026 15:00 tempo osservato: Sereno Sereno 28 39 1016 vento: Nord NE 14.8
30 Agosto 2026 14:30 tempo osservato: Sereno Sereno 28 37 1016 vento: Nord N/NE 14.8
30 Agosto 2026 14:00 tempo osservato: Sereno Sereno 26 39 1017 vento: Nord NE 13